createdAt,value
2017-06-25T00:00:14.805Z,71.70
2017-06-25T00:02:43.049Z,72.10
2017-06-25T00:05:10.552Z,71.90
2017-06-25T00:07:38.790Z,71.20
2017-06-25T00:10:06.277Z,71.20
2017-06-25T00:12:34.532Z,72.10
2017-06-25T00:15:02.005Z,71.90
2017-06-25T00:17:30.249Z,72.70
2017-06-25T00:19:57.749Z,72.70
2017-06-25T00:22:25.227Z,72.80
2017-06-25T00:24:52.701Z,72.40
2017-06-25T00:27:20.233Z,72.50
2017-06-25T00:29:47.701Z,73.20
2017-06-25T00:32:15.173Z,73.30
2017-06-25T00:34:42.665Z,73.20
2017-06-25T00:37:10.153Z,72.60
2017-06-25T00:39:37.945Z,72.50
2017-06-25T00:42:05.442Z,73.60
2017-06-25T00:44:32.918Z,73.10
2017-06-25T00:47:01.161Z,73.10
2017-06-25T00:49:28.657Z,73.00
2017-06-25T00:51:56.893Z,73.60
2017-06-25T00:54:30.209Z,73.50
2017-06-25T00:56:58.457Z,74.90
2017-06-25T00:59:25.938Z,74.90
2017-06-25T01:01:53.468Z,75.80
2017-06-25T01:04:20.957Z,76.00
2017-06-25T01:06:48.434Z,76.10
2017-06-25T01:09:15.937Z,75.90
2017-06-25T01:11:43.418Z,76.10
2017-06-25T01:14:11.681Z,77.50
2017-06-25T01:16:39.186Z,77.40
2017-06-25T01:19:06.665Z,77.40
2017-06-25T01:21:34.148Z,77.00
2017-06-25T01:24:01.765Z,76.90
2017-06-25T01:26:29.237Z,77.00
2017-06-25T01:28:56.762Z,77.00
2017-06-25T01:31:25.029Z,77.30
2017-06-25T01:33:53.274Z,78.10
2017-06-25T01:36:20.753Z,77.50
2017-06-25T01:38:48.273Z,76.90
2017-06-25T01:41:15.749Z,76.40
2017-06-25T01:43:43.229Z,76.00
2017-06-25T01:46:10.729Z,76.60
2017-06-25T01:48:38.230Z,76.50
2017-06-25T01:51:05.710Z,77.10
2017-06-25T01:53:33.229Z,76.50
2017-06-25T01:56:00.706Z,75.90
2017-06-25T01:58:28.177Z,75.80
2017-06-25T02:00:56.441Z,77.20
2017-06-25T02:03:23.909Z,76.50
2017-06-25T02:05:52.155Z,75.60
2017-06-25T02:08:19.653Z,75.90
2017-06-25T02:10:48.173Z,75.80
2017-06-25T02:13:15.690Z,75.70
2017-06-25T02:15:43.966Z,75.90
2017-06-25T02:18:12.213Z,74.90
2017-06-25T02:20:39.693Z,74.90
2017-06-25T02:23:07.962Z,76.00
2017-06-25T02:25:35.443Z,75.90
2017-06-25T02:28:02.922Z,76.30
2017-06-25T02:30:30.425Z,77.10
2017-06-25T02:32:57.908Z,76.20
2017-06-25T02:35:26.154Z,76.20
2017-06-25T02:37:53.653Z,76.10
2017-06-25T02:40:21.133Z,76.60
2017-06-25T02:42:48.617Z,75.80
2017-06-25T02:45:16.113Z,76.40
2017-06-25T02:47:44.348Z,77.70
2017-06-25T02:50:11.825Z,77.70
2017-06-25T02:52:39.393Z,77.70
2017-06-25T02:55:07.639Z,76.50
2017-06-25T02:57:35.377Z,76.20
2017-06-25T03:00:02.897Z,76.40
2017-06-25T03:02:31.153Z,75.70
2017-06-25T03:04:58.638Z,75.60
2017-06-25T03:07:26.141Z,76.00
2017-06-25T03:09:53.614Z,75.00
2017-06-25T03:12:21.085Z,75.30
2017-06-25T03:14:48.591Z,75.90
2017-06-25T03:17:16.068Z,75.60
2017-06-25T03:19:43.549Z,75.80
2017-06-25T03:22:11.273Z,76.00
2017-06-25T03:24:38.753Z,76.10
2017-06-25T03:27:06.229Z,75.90
2017-06-25T03:29:33.729Z,75.90
2017-06-25T03:32:01.205Z,75.80
2017-06-25T03:34:28.688Z,75.60
2017-06-25T03:36:56.185Z,76.90
2017-06-25T03:39:24.429Z,76.90
2017-06-25T03:41:51.919Z,76.90
2017-06-25T03:44:19.555Z,76.50
2017-06-25T03:46:47.026Z,75.80
2017-06-25T03:49:15.272Z,76.50
2017-06-25T03:51:42.772Z,76.50
2017-06-25T03:54:10.249Z,75.90
2017-06-25T03:56:37.730Z,75.70
2017-06-25T03:59:05.221Z,75.80
2017-06-25T04:01:33.460Z,76.40
2017-06-25T04:04:00.938Z,75.70
2017-06-25T04:06:28.826Z,75.90
2017-06-25T04:08:57.073Z,75.60
2017-06-25T04:11:24.554Z,75.50
2017-06-25T04:13:52.814Z,75.30
2017-06-25T04:16:20.292Z,75.20
2017-06-25T04:18:48.533Z,75.10
2017-06-25T04:21:16.032Z,75.10
2017-06-25T04:23:44.270Z,75.70
2017-06-25T04:26:11.749Z,75.70
2017-06-25T04:28:40.013Z,75.60
2017-06-25T04:31:07.493Z,75.00
2017-06-25T04:33:35.760Z,74.20
2017-06-25T04:36:04.025Z,74.10
2017-06-25T04:38:31.745Z,73.80
2017-06-25T04:40:59.221Z,73.80
2017-06-25T04:43:26.725Z,74.60
2017-06-25T04:45:54.966Z,75.00
2017-06-25T04:48:22.449Z,75.00
2017-06-25T04:50:50.825Z,75.90
2017-06-25T04:53:19.069Z,75.70
2017-06-25T04:55:46.541Z,75.60
2017-06-25T04:58:14.038Z,75.00
2017-06-25T05:00:41.513Z,75.50
2017-06-25T05:03:09.030Z,74.60
2017-06-25T05:05:37.290Z,73.60
2017-06-25T05:08:04.761Z,73.60
2017-06-25T05:10:33.009Z,74.20
2017-06-25T05:13:00.525Z,74.20
2017-06-25T05:15:28.037Z,74.70
2017-06-25T05:17:55.597Z,74.40
2017-06-25T05:20:23.094Z,75.00
2017-06-25T05:22:50.629Z,74.80
2017-06-25T05:25:18.864Z,74.10
2017-06-25T05:27:46.362Z,74.00
2017-06-25T05:30:14.638Z,73.60
2017-06-25T05:32:42.881Z,73.30
2017-06-25T05:35:10.617Z,73.30
2017-06-25T05:37:38.089Z,72.80
2017-06-25T05:40:05.561Z,72.90
2017-06-25T05:42:33.053Z,73.50
2017-06-25T05:45:01.290Z,72.00
2017-06-25T05:47:28.773Z,72.00
2017-06-25T05:49:57.053Z,70.10
2017-06-25T05:52:25.293Z,68.80
2017-06-25T05:54:52.767Z,68.80
2017-06-25T05:57:20.262Z,69.00
2017-06-25T05:59:47.737Z,68.40
2017-06-25T06:02:15.217Z,68.30
2017-06-25T06:04:42.712Z,67.20
2017-06-25T06:07:10.949Z,68.10
2017-06-25T06:09:38.426Z,68.10
2017-06-25T06:12:05.917Z,67.60
2017-06-25T06:14:33.389Z,68.20
2017-06-25T06:17:00.862Z,68.30
2017-06-25T06:19:28.377Z,67.80
2017-06-25T06:21:56.613Z,67.10
2017-06-25T06:24:24.085Z,67.10
2017-06-25T06:26:51.577Z,66.60
2017-06-25T06:29:19.054Z,66.00
2017-06-25T06:31:46.529Z,66.10
2017-06-25T06:34:14.034Z,64.60
2017-06-25T06:36:42.309Z,65.10
2017-06-25T06:39:10.553Z,64.50
2017-06-25T06:41:38.050Z,64.30
2017-06-25T06:44:06.315Z,62.50
2017-06-25T06:46:34.549Z,60.20
2017-06-25T06:49:02.042Z,60.60
2017-06-25T06:51:29.517Z,59.50
2017-06-25T06:53:57.786Z,55.40
2017-06-25T06:56:26.310Z,55.50
2017-06-25T06:58:53.784Z,55.40
2017-06-25T07:01:21.324Z,53.90
2017-06-25T07:03:49.546Z,55.30
2017-06-25T07:06:17.017Z,54.70
2017-06-25T07:08:45.263Z,54.20
2017-06-25T07:11:12.994Z,54.20
2017-06-25T07:13:40.481Z,54.50
2017-06-25T07:16:08.214Z,53.90
2017-06-25T07:18:35.713Z,51.80
2017-06-25T07:21:03.184Z,50.90
2017-06-25T07:23:31.421Z,51.20
2017-06-25T07:25:58.914Z,51.10
2017-06-25T07:28:27.154Z,45.80
2017-06-25T07:30:54.622Z,45.80
2017-06-25T07:33:22.117Z,44.00
2017-06-25T07:35:50.365Z,45.50
2017-06-25T07:38:17.837Z,45.40
2017-06-25T07:40:46.097Z,45.00
2017-06-25T07:43:13.572Z,44.20
2017-06-25T07:45:41.813Z,44.80
2017-06-25T07:48:09.317Z,44.90
2017-06-25T07:50:36.794Z,44.20
2017-06-25T07:53:04.265Z,44.10
2017-06-25T07:55:31.758Z,43.20
2017-06-25T07:57:59.245Z,42.50
2017-06-25T08:00:26.718Z,42.70
2017-06-25T08:03:24.521Z,43.40
2017-06-25T08:05:51.994Z,40.50
2017-06-25T08:08:19.721Z,41.50
2017-06-25T08:10:47.213Z,42.90
2017-06-25T08:13:14.693Z,42.80
2017-06-25T08:15:42.929Z,42.90
2017-06-25T08:18:10.674Z,42.90
2017-06-25T08:20:38.161Z,42.60
2017-06-25T08:23:05.687Z,41.30
2017-06-25T08:25:33.453Z,40.80
2017-06-25T08:28:00.926Z,38.90
2017-06-25T08:30:28.397Z,38.60
2017-06-25T08:32:56.133Z,39.10
2017-06-25T08:35:23.606Z,40.40
2017-06-25T08:37:51.080Z,41.60
2017-06-25T08:40:18.573Z,41.50
2017-06-25T08:42:46.081Z,41.30
2017-06-25T08:45:13.557Z,41.90
2017-06-25T08:47:41.233Z,42.10
2017-06-25T08:50:09.498Z,43.90
2017-06-25T08:52:36.974Z,43.60
2017-06-25T08:55:05.256Z,44.00
2017-06-25T08:57:32.767Z,44.60
2017-06-25T09:00:00.241Z,42.60
2017-06-25T09:02:27.729Z,40.20
2017-06-25T09:04:55.201Z,37.80
2017-06-25T09:07:22.673Z,37.10
2017-06-25T09:09:50.433Z,37.40
2017-06-25T09:12:17.909Z,36.30
2017-06-25T09:14:45.385Z,36.10
2017-06-25T09:17:12.877Z,36.60
2017-06-25T09:19:40.426Z,36.30
2017-06-25T09:22:08.664Z,35.00
2017-06-25T09:24:36.155Z,35.00
2017-06-25T09:27:04.393Z,34.40
2017-06-25T09:29:31.886Z,34.30
2017-06-25T09:32:00.145Z,36.20
2017-06-25T09:34:27.621Z,36.10
2017-06-25T09:36:55.865Z,35.30
2017-06-25T09:39:23.497Z,35.30
2017-06-25T09:41:50.968Z,36.20
2017-06-25T09:44:18.585Z,36.10
2017-06-25T09:46:46.077Z,37.50
2017-06-25T09:49:13.554Z,36.60
2017-06-25T09:51:41.086Z,36.50
2017-06-25T09:54:08.576Z,32.50
2017-06-25T09:56:36.049Z,33.30
2017-06-25T09:59:03.521Z,34.30
2017-06-25T10:01:31.777Z,36.30
2017-06-25T10:03:59.245Z,36.20
2017-06-25T10:06:27.482Z,36.40
2017-06-25T10:08:55.017Z,35.90
2017-06-25T10:11:22.509Z,38.30
2017-06-25T10:13:49.985Z,37.90
2017-06-25T10:16:17.485Z,38.30
2017-06-25T10:18:44.953Z,37.50
2017-06-25T10:21:12.428Z,38.70
2017-06-25T10:23:39.921Z,39.20
2017-06-25T10:26:08.158Z,37.50
2017-06-25T10:28:35.633Z,37.50
2017-06-25T10:31:03.125Z,36.60
2017-06-25T10:33:31.637Z,34.80
2017-06-25T10:35:59.104Z,34.80
2017-06-25T10:38:26.673Z,32.60
2017-06-25T10:40:54.416Z,32.20
2017-06-25T10:43:21.889Z,34.30
2017-06-25T10:45:49.389Z,33.10
2017-06-25T10:48:17.633Z,34.00
2017-06-25T10:50:45.105Z,34.10
2017-06-25T10:53:12.598Z,35.10
2017-06-25T10:55:40.069Z,35.80
2017-06-25T10:58:07.541Z,33.30
2017-06-25T11:00:35.054Z,32.70
2017-06-25T11:03:02.760Z,33.40
2017-06-25T11:05:30.229Z,34.20
2017-06-25T11:07:57.721Z,33.10
2017-06-25T11:10:25.194Z,34.70
2017-06-25T11:12:53.430Z,36.70
2017-06-25T11:15:20.952Z,36.70
2017-06-25T11:17:48.870Z,36.90
2017-06-25T11:20:16.348Z,37.50
2017-06-25T11:22:44.629Z,38.40
2017-06-25T11:25:12.865Z,37.10
2017-06-25T11:27:40.333Z,37.10
2017-06-25T11:30:08.154Z,37.00
2017-06-25T11:32:35.633Z,34.00
2017-06-25T11:35:03.371Z,34.40
2017-06-25T11:37:30.901Z,35.10
2017-06-25T11:39:59.413Z,36.20
2017-06-25T11:42:26.885Z,36.10
2017-06-25T11:44:54.377Z,36.30
2017-06-25T11:47:21.881Z,36.70
2017-06-25T11:49:49.357Z,35.20
2017-06-25T11:52:16.848Z,36.70
2017-06-25T11:54:44.317Z,36.20
2017-06-25T11:57:12.553Z,30.80
2017-06-25T11:59:40.048Z,30.80
2017-06-25T12:02:08.293Z,33.70
2017-06-25T12:04:35.761Z,33.70
2017-06-25T12:07:03.257Z,34.10
2017-06-25T12:09:30.736Z,34.90
2017-06-25T12:11:58.208Z,35.50
2017-06-25T12:14:25.704Z,35.60
2017-06-25T12:16:53.961Z,37.30
2017-06-25T12:19:21.441Z,37.30
2017-06-25T12:21:49.698Z,37.90
2017-06-25T12:24:17.173Z,37.90
2017-06-25T12:26:45.409Z,39.90
2017-06-25T12:29:12.902Z,39.80
2017-06-25T12:31:41.141Z,41.30
2017-06-25T12:34:08.613Z,41.20
2017-06-25T12:36:36.105Z,40.60
2017-06-25T12:39:04.340Z,40.80
2017-06-25T12:41:31.813Z,40.80
2017-06-25T12:43:59.305Z,41.10
2017-06-25T12:46:26.773Z,41.70
2017-06-25T12:48:54.245Z,42.00
2017-06-25T12:51:21.756Z,41.70
2017-06-25T12:53:49.993Z,42.40
2017-06-25T12:56:17.469Z,42.40
2017-06-25T12:58:45.294Z,42.30
2017-06-25T13:01:13.405Z,43.20
2017-06-25T13:03:41.545Z,43.50
2017-06-25T13:06:09.037Z,42.70
2017-06-25T13:08:36.505Z,42.90
2017-06-25T13:11:04.748Z,43.00
2017-06-25T13:13:32.237Z,43.00
2017-06-25T13:16:00.477Z,43.80
2017-06-25T13:18:27.949Z,43.80
2017-06-25T13:20:55.449Z,44.60
2017-06-25T13:23:22.926Z,44.20
2017-06-25T13:25:50.401Z,44.40
2017-06-25T13:28:18.059Z,44.70
2017-06-25T13:30:45.553Z,44.90
2017-06-25T13:33:13.269Z,44.20
2017-06-25T13:35:40.761Z,44.60
2017-06-25T13:38:08.257Z,44.80
2017-06-25T13:40:35.726Z,45.10
2017-06-25T13:43:03.218Z,43.90
2017-06-25T13:45:30.964Z,43.30
2017-06-25T13:47:58.445Z,42.40
2017-06-25T13:50:25.973Z,41.00
2017-06-25T13:52:53.450Z,41.70
2017-06-25T13:55:20.932Z,42.10
2017-06-25T13:57:48.429Z,42.40
2017-06-25T14:00:15.965Z,42.20
2017-06-25T14:02:44.201Z,41.40
2017-06-25T14:05:11.719Z,41.40
2017-06-25T14:07:39.193Z,42.30
2017-06-25T14:10:06.670Z,42.10
2017-06-25T14:12:34.173Z,42.70
2017-06-25T14:15:02.421Z,43.00
2017-06-25T14:17:29.893Z,43.00
2017-06-25T14:19:58.172Z,42.30
2017-06-25T14:22:26.410Z,43.20
2017-06-25T14:24:53.886Z,43.20
2017-06-25T14:27:21.382Z,43.70
2017-06-25T14:29:48.854Z,43.10
2017-06-25T14:32:16.325Z,42.50
2017-06-25T14:34:43.817Z,43.40
2017-06-25T14:37:11.544Z,42.70
2017-06-25T14:39:39.021Z,43.90
2017-06-25T14:42:06.518Z,43.90
2017-06-25T14:44:34.753Z,43.20
2017-06-25T14:47:02.233Z,43.10
2017-06-25T14:49:29.730Z,42.50
2017-06-25T14:51:57.202Z,42.00
2017-06-25T14:54:24.670Z,42.40
2017-06-25T14:56:52.164Z,41.80
2017-06-25T14:59:19.648Z,42.70
2017-06-25T15:01:47.117Z,42.20
2017-06-25T15:04:14.610Z,41.80
2017-06-25T15:06:45.048Z,42.30
2017-06-25T15:09:12.521Z,42.90
2017-06-25T15:11:40.782Z,42.70
2017-06-25T15:14:08.273Z,42.70
2017-06-25T15:16:35.745Z,43.00
2017-06-25T15:19:03.246Z,42.60
2017-06-25T15:21:30.718Z,42.70
2017-06-25T15:23:58.186Z,43.10
2017-06-25T15:26:26.449Z,42.70
2017-06-25T15:28:54.169Z,42.70
2017-06-25T15:31:21.642Z,42.80
2017-06-25T15:33:49.137Z,42.70
2017-06-25T15:36:17.372Z,42.50
2017-06-25T15:38:44.841Z,42.50
2017-06-25T15:41:12.333Z,43.30
2017-06-25T15:43:40.853Z,43.30
2017-06-25T15:46:08.621Z,43.20
2017-06-25T15:48:36.113Z,43.20
2017-06-25T15:51:03.585Z,43.70
2017-06-25T15:53:31.824Z,43.80
2017-06-25T15:55:59.318Z,43.70
2017-06-25T15:58:27.565Z,44.60
2017-06-25T16:00:55.037Z,44.30
2017-06-25T16:03:22.529Z,44.00
2017-06-25T16:05:50.068Z,44.10
2017-06-25T16:08:18.393Z,44.20
2017-06-25T16:10:45.893Z,44.20
2017-06-25T16:13:13.401Z,44.80
2017-06-25T16:15:40.879Z,45.30
2017-06-25T16:18:08.625Z,45.50
2017-06-25T16:20:36.097Z,45.50
2017-06-25T16:23:03.566Z,45.70
2017-06-25T16:25:31.059Z,45.90
2017-06-25T16:27:59.298Z,46.10
2017-06-25T16:30:26.769Z,46.00
2017-06-25T16:32:54.349Z,46.00
2017-06-25T16:35:21.835Z,45.80
2017-06-25T16:37:49.309Z,45.40
2017-06-25T16:40:16.805Z,45.90
2017-06-25T16:42:44.283Z,46.00
2017-06-25T16:45:12.525Z,45.30
2017-06-25T16:47:40.021Z,45.30
2017-06-25T16:50:07.500Z,45.30
2017-06-25T16:52:35.498Z,45.60
2017-06-25T16:55:02.993Z,45.90
2017-06-25T16:57:31.242Z,46.10
2017-06-25T16:59:58.725Z,46.10
2017-06-25T17:02:26.984Z,45.90
2017-06-25T17:04:54.899Z,45.80
2017-06-25T17:07:22.462Z,46.10
2017-06-25T17:09:49.977Z,46.20
2017-06-25T17:12:18.221Z,46.30
2017-06-25T17:14:45.694Z,46.30
2017-06-25T17:17:13.192Z,46.60
2017-06-25T17:19:40.663Z,47.00
2017-06-25T17:22:08.137Z,46.50
2017-06-25T17:24:35.627Z,46.70
2017-06-25T17:27:03.197Z,46.90
2017-06-25T17:29:31.661Z,47.00
2017-06-25T17:31:59.153Z,46.70
2017-06-25T17:34:26.693Z,47.10
2017-06-25T17:36:54.929Z,47.70
2017-06-25T17:39:22.425Z,46.80
2017-06-25T17:41:50.669Z,47.80
2017-06-25T17:44:18.153Z,47.80
2017-06-25T17:46:46.421Z,47.70
2017-06-25T17:49:13.904Z,47.30
2017-06-25T17:51:41.382Z,46.90
2017-06-25T17:54:08.878Z,47.60
2017-06-25T17:56:36.349Z,47.60
2017-06-25T17:59:03.925Z,47.30
2017-06-25T18:01:32.189Z,47.00
2017-06-25T18:03:59.753Z,47.00
2017-06-25T18:06:27.994Z,47.10
2017-06-25T18:08:55.737Z,47.10
2017-06-25T18:11:23.206Z,47.00
2017-06-25T18:13:50.681Z,47.10
2017-06-25T18:16:18.197Z,47.20
2017-06-25T18:18:45.973Z,47.40
2017-06-25T18:21:13.450Z,47.40
2017-06-25T18:23:40.945Z,47.40
2017-06-25T18:26:09.181Z,47.00
2017-06-25T18:28:36.654Z,47.00
2017-06-25T18:31:04.154Z,47.10
2017-06-25T18:33:31.633Z,47.30
2017-06-25T18:35:59.106Z,47.50
2017-06-25T18:38:26.638Z,47.80
2017-06-25T18:40:54.118Z,47.60
2017-06-25T18:43:21.592Z,47.60
2017-06-25T18:45:49.159Z,48.00
2017-06-25T18:48:16.679Z,48.20
2017-06-25T18:50:44.222Z,48.20
2017-06-25T18:53:11.852Z,49.30
2017-06-25T18:55:39.849Z,48.60
2017-06-25T18:58:07.693Z,48.70
2017-06-25T19:00:35.704Z,48.70
2017-06-25T19:03:03.564Z,49.00
2017-06-25T19:05:31.565Z,48.70
2017-06-25T19:07:59.705Z,48.80
2017-06-25T19:10:27.535Z,48.80
2017-06-25T19:12:55.474Z,48.80
2017-06-25T19:15:24.329Z,48.90
2017-06-25T19:17:52.299Z,48.90
2017-06-25T19:20:20.162Z,49.00
2017-06-25T19:22:48.234Z,49.10
2017-06-25T19:25:16.398Z,49.40
2017-06-25T19:27:44.989Z,49.40
2017-06-25T19:30:13.739Z,49.70
2017-06-25T19:32:42.463Z,49.70
2017-06-25T19:35:10.329Z,49.70
2017-06-25T19:37:38.862Z,49.70
2017-06-25T19:40:06.781Z,49.80
2017-06-25T19:42:35.466Z,50.90
2017-06-25T19:45:03.534Z,50.10
2017-06-25T19:47:31.399Z,50.00
2017-06-25T19:49:59.282Z,50.20
2017-06-25T19:52:27.953Z,50.20
2017-06-25T19:54:55.817Z,50.30
2017-06-25T19:57:23.685Z,50.50
2017-06-25T19:59:51.549Z,50.60
2017-06-25T20:02:19.445Z,50.80
2017-06-25T20:04:48.104Z,50.90
2017-06-25T20:07:15.658Z,50.90
2017-06-25T20:09:43.445Z,51.10
2017-06-25T20:12:11.295Z,51.50
2017-06-25T20:14:39.653Z,51.80
2017-06-25T20:17:07.186Z,51.90
2017-06-25T20:19:35.942Z,52.60
2017-06-25T20:22:03.884Z,52.20
2017-06-25T20:24:31.462Z,52.40
2017-06-25T20:26:59.135Z,52.40
2017-06-25T20:29:27.461Z,52.60
2017-06-25T20:31:54.934Z,52.60
2017-06-25T20:34:22.405Z,52.70
2017-06-25T20:36:49.897Z,52.60
2017-06-25T20:39:17.366Z,52.80
2017-06-25T20:41:45.710Z,53.00
2017-06-25T20:44:13.453Z,53.00
2017-06-25T20:46:40.921Z,53.30
2017-06-25T20:49:08.390Z,53.40
2017-06-25T20:51:35.969Z,53.60
2017-06-25T20:54:04.217Z,54.40
2017-06-25T20:56:31.692Z,54.20
2017-06-25T20:58:59.181Z,54.40
2017-06-25T21:01:26.742Z,54.70
2017-06-25T21:03:54.229Z,55.00
2017-06-25T21:06:21.725Z,55.10
2017-06-25T21:08:49.684Z,55.40
2017-06-25T21:11:17.205Z,55.50
2017-06-25T21:13:44.717Z,55.50
2017-06-25T21:16:12.185Z,55.90
2017-06-25T21:18:40.456Z,56.20
2017-06-25T21:21:08.725Z,56.40
2017-06-25T21:23:36.196Z,56.30
2017-06-25T21:26:04.666Z,56.50
2017-06-25T21:28:32.153Z,56.50
2017-06-25T21:30:59.624Z,57.00
2017-06-25T21:33:27.097Z,57.00
2017-06-25T21:35:54.585Z,57.10
2017-06-25T21:38:22.061Z,57.30
2017-06-25T21:40:50.296Z,57.70
2017-06-25T21:43:17.784Z,57.70
2017-06-25T21:45:46.020Z,58.40
2017-06-25T21:48:13.489Z,58.20
2017-06-25T21:50:41.229Z,58.40
2017-06-25T21:53:08.697Z,58.50
2017-06-25T21:55:36.169Z,58.90
2017-06-25T21:58:03.657Z,58.70
2017-06-25T22:00:31.893Z,59.10
2017-06-25T22:02:59.372Z,59.10
2017-06-25T22:05:26.857Z,59.30
2017-06-25T22:07:55.097Z,60.20
2017-06-25T22:10:22.564Z,60.90
2017-06-25T22:12:50.381Z,60.90
2017-06-25T22:15:17.854Z,61.30
2017-06-25T22:17:45.321Z,61.80
2017-06-25T22:20:12.809Z,62.00
2017-06-25T22:22:41.045Z,62.90
2017-06-25T22:25:08.518Z,62.80
2017-06-25T22:27:36.008Z,63.40
2017-06-25T22:30:04.524Z,63.20
2017-06-25T22:32:31.992Z,63.20
2017-06-25T22:34:59.485Z,63.30
2017-06-25T22:37:26.956Z,63.70
2017-06-25T22:39:55.193Z,63.10
2017-06-25T22:42:22.722Z,63.00
2017-06-25T22:44:50.192Z,63.00
2017-06-25T22:47:17.661Z,63.50
2017-06-25T22:49:45.155Z,63.90
2017-06-25T22:52:13.621Z,64.70
2017-06-25T22:54:41.092Z,64.60
2017-06-25T22:57:09.356Z,63.50
2017-06-25T22:59:36.824Z,63.50
2017-06-25T23:02:05.056Z,65.00
2017-06-25T23:04:32.544Z,64.60
2017-06-25T23:07:00.017Z,65.10
2017-06-25T23:09:28.252Z,64.80
2017-06-25T23:11:56.155Z,64.80
2017-06-25T23:14:24.388Z,64.10
2017-06-25T23:16:51.857Z,64.10
2017-06-25T23:19:19.349Z,64.10
2017-06-25T23:21:47.865Z,65.20
2017-06-25T23:24:15.335Z,65.20
2017-06-25T23:26:42.824Z,64.30
2017-06-25T23:29:11.076Z,65.40
2017-06-25T23:31:38.544Z,66.10
2017-06-25T23:34:06.033Z,65.80
2017-06-25T23:36:34.273Z,66.40
2017-06-25T23:39:01.904Z,66.40
2017-06-25T23:41:29.434Z,67.00
2017-06-25T23:43:56.911Z,66.50
2017-06-25T23:46:24.685Z,67.30
2017-06-25T23:48:52.296Z,66.70
2017-06-25T23:51:20.561Z,68.20
2017-06-25T23:53:48.032Z,67.40
2017-06-25T23:56:15.537Z,67.60
2017-06-25T23:58:43.017Z,67.20
